sensor_id;sensor_type;location;lat;lon;timestamp;temperature;humidity
19536;HTU21D;9913;51.168;4.124;2023-02-01T00:01:30;5.24;72.95
19536;HTU21D;9913;51.168;4.124;2023-02-01T00:03:58;5.26;72.99
19536;HTU21D;9913;51.168;4.124;2023-02-01T00:06:28;5.17;73.15
19536;HTU21D;9913;51.168;4.124;2023-02-01T00:08:57;5.10;73.19
19536;HTU21D;9913;51.168;4.124;2023-02-01T00:11:25;5.00;73.40
19536;HTU21D;9913;51.168;4.124;2023-02-01T00:13:53;4.94;73.58
19536;HTU21D;9913;51.168;4.124;2023-02-01T00:16:24;4.90;73.77
19536;HTU21D;9913;51.168;4.124;2023-02-01T00:18:57;4.77;73.86
19536;HTU21D;9913;51.168;4.124;2023-02-01T00:21:27;4.69;73.95
19536;HTU21D;9913;51.168;4.124;2023-02-01T00:23:56;4.65;74.06
19536;HTU21D;9913;51.168;4.124;2023-02-01T00:26:30;4.71;73.93
19536;HTU21D;9913;51.168;4.124;2023-02-01T00:28:58;4.61;73.83
19536;HTU21D;9913;51.168;4.124;2023-02-01T00:31:27;4.54;73.88
19536;HTU21D;9913;51.168;4.124;2023-02-01T00:33:55;4.57;73.74
19536;HTU21D;9913;51.168;4.124;2023-02-01T00:36:24;4.54;73.61
19536;HTU21D;9913;51.168;4.124;2023-02-01T00:38:53;4.52;73.38
19536;HTU21D;9913;51.168;4.124;2023-02-01T00:41:22;4.54;73.16
19536;HTU21D;9913;51.168;4.124;2023-02-01T00:43:51;4.56;72.80
19536;HTU21D;9913;51.168;4.124;2023-02-01T00:46:20;4.54;72.67
19536;HTU21D;9913;51.168;4.124;2023-02-01T00:48:49;4.62;72.26
19536;HTU21D;9913;51.168;4.124;2023-02-01T00:51:19;4.56;72.16
19536;HTU21D;9913;51.168;4.124;2023-02-01T00:53:48;4.54;72.16
19536;HTU21D;9913;51.168;4.124;2023-02-01T00:56:18;4.68;71.77
19536;HTU21D;9913;51.168;4.124;2023-02-01T00:58:47;4.74;71.43
19536;HTU21D;9913;51.168;4.124;2023-02-01T01:01:18;4.77;71.16
19536;HTU21D;9913;51.168;4.124;2023-02-01T01:03:48;4.94;71.29
19536;HTU21D;9913;51.168;4.124;2023-02-01T01:06:20;4.86;70.99
19536;HTU21D;9913;51.168;4.124;2023-02-01T01:08:50;4.88;71.00
19536;HTU21D;9913;51.168;4.124;2023-02-01T01:11:23;4.92;71.29
19536;HTU21D;9913;51.168;4.124;2023-02-01T01:13:53;5.11;71.38
19536;HTU21D;9913;51.168;4.124;2023-02-01T01:16:23;5.05;71.09
19536;HTU21D;9913;51.168;4.124;2023-02-01T01:18:52;5.02;71.62
19536;HTU21D;9913;51.168;4.124;2023-02-01T01:21:20;5.02;71.46
19536;HTU21D;9913;51.168;4.124;2023-02-01T01:23:49;4.92;71.27
19536;HTU21D;9913;51.168;4.124;2023-02-01T01:26:19;4.95;71.61
19536;HTU21D;9913;51.168;4.124;2023-02-01T01:28:50;4.83;71.35
19536;HTU21D;9913;51.168;4.124;2023-02-01T01:31:19;4.79;71.71
19536;HTU21D;9913;51.168;4.124;2023-02-01T01:33:49;4.78;71.68
19536;HTU21D;9913;51.168;4.124;2023-02-01T01:36:18;4.68;71.60
19536;HTU21D;9913;51.168;4.124;2023-02-01T01:38:47;4.67;71.68
19536;HTU21D;9913;51.168;4.124;2023-02-01T01:41:18;4.63;71.71
19536;HTU21D;9913;51.168;4.124;2023-02-01T01:43:51;4.63;71.58
19536;HTU21D;9913;51.168;4.124;2023-02-01T01:46:23;4.63;71.67
19536;HTU21D;9913;51.168;4.124;2023-02-01T01:48:57;4.65;71.86
19536;HTU21D;9913;51.168;4.124;2023-02-01T01:51:28;4.60;71.75
19536;HTU21D;9913;51.168;4.124;2023-02-01T01:54:02;4.72;71.96
19536;HTU21D;9913;51.168;4.124;2023-02-01T01:56:33;4.71;71.71
19536;HTU21D;9913;51.168;4.124;2023-02-01T01:59:09;4.71;71.96
19536;HTU21D;9913;51.168;4.124;2023-02-01T02:01:38;4.63;71.86
19536;HTU21D;9913;51.168;4.124;2023-02-01T02:04:07;4.63;71.98
19536;HTU21D;9913;51.168;4.124;2023-02-01T02:06:43;4.67;72.13
19536;HTU21D;9913;51.168;4.124;2023-02-01T02:09:15;4.58;71.96
19536;HTU21D;9913;51.168;4.124;2023-02-01T02:11:44;4.56;72.06
19536;HTU21D;9913;51.168;4.124;2023-02-01T02:14:16;4.63;72.19
19536;HTU21D;9913;51.168;4.124;2023-02-01T02:16:58;4.61;72.16
19536;HTU21D;9913;51.168;4.124;2023-02-01T02:19:54;4.61;72.32
19536;HTU21D;9913;51.168;4.124;2023-02-01T02:22:45;4.65;72.33
19536;HTU21D;9913;51.168;4.124;2023-02-01T02:25:48;4.77;72.34
19536;HTU21D;9913;51.168;4.124;2023-02-01T02:28:39;4.76;72.31
19536;HTU21D;9913;51.168;4.124;2023-02-01T02:31:36;4.76;72.47
19536;HTU21D;9913;51.168;4.124;2023-02-01T02:34:16;4.67;72.33
19536;HTU21D;9913;51.168;4.124;2023-02-01T02:36:55;4.64;72.59
19536;HTU21D;9913;51.168;4.124;2023-02-01T02:39:34;4.56;72.38
19536;HTU21D;9913;51.168;4.124;2023-02-01T02:42:11;4.50;72.38
19536;HTU21D;9913;51.168;4.124;2023-02-01T02:45:02;4.49;72.41
19536;HTU21D;9913;51.168;4.124;2023-02-01T02:47:53;4.48;72.38
19536;HTU21D;9913;51.168;4.124;2023-02-01T02:50:29;4.45;72.45
19536;HTU21D;9913;51.168;4.124;2023-02-01T02:53:23;4.49;72.51
19536;HTU21D;9913;51.168;4.124;2023-02-01T02:56:09;4.53;72.40
19536;HTU21D;9913;51.168;4.124;2023-02-01T02:58:58;4.57;72.50
19536;HTU21D;9913;51.168;4.124;2023-02-01T03:01:44;4.56;72.45
19536;HTU21D;9913;51.168;4.124;2023-02-01T03:04:30;4.57;72.48
19536;HTU21D;9913;51.168;4.124;2023-02-01T03:07:12;4.58;72.46
19536;HTU21D;9913;51.168;4.124;2023-02-01T03:09:41;4.53;72.35
19536;HTU21D;9913;51.168;4.124;2023-02-01T03:12:15;4.51;72.40
19536;HTU21D;9913;51.168;4.124;2023-02-01T03:15:05;4.53;72.41
19536;HTU21D;9913;51.168;4.124;2023-02-01T03:17:42;4.57;72.51
19536;HTU21D;9913;51.168;4.124;2023-02-01T03:20:13;4.59;72.41
19536;HTU21D;9913;51.168;4.124;2023-02-01T03:22:44;4.61;72.37
19536;HTU21D;9913;51.168;4.124;2023-02-01T03:25:18;4.54;72.38
19536;HTU21D;9913;51.168;4.124;2023-02-01T03:27:52;4.59;72.60
19536;HTU21D;9913;51.168;4.124;2023-02-01T03:30:23;4.58;72.45
19536;HTU21D;9913;51.168;4.124;2023-02-01T03:32:55;4.53;72.45
19536;HTU21D;9913;51.168;4.124;2023-02-01T03:35:37;4.46;72.42
19536;HTU21D;9913;51.168;4.124;2023-02-01T03:38:17;4.43;72.44
19536;HTU21D;9913;51.168;4.124;2023-02-01T03:40:51;4.39;72.45
19536;HTU21D;9913;51.168;4.124;2023-02-01T03:43:23;4.36;72.36
19536;HTU21D;9913;51.168;4.124;2023-02-01T03:45:58;4.36;72.59
19536;HTU21D;9913;51.168;4.124;2023-02-01T03:48:28;4.31;72.56
19536;HTU21D;9913;51.168;4.124;2023-02-01T03:51:01;4.27;72.56
19536;HTU21D;9913;51.168;4.124;2023-02-01T03:53:34;4.27;72.59
19536;HTU21D;9913;51.168;4.124;2023-02-01T03:56:06;4.30;72.53
19536;HTU21D;9913;51.168;4.124;2023-02-01T03:58:35;4.27;72.54
19536;HTU21D;9913;51.168;4.124;2023-02-01T04:01:06;4.19;72.59
19536;HTU21D;9913;51.168;4.124;2023-02-01T04:03:37;4.18;72.58
19536;HTU21D;9913;51.168;4.124;2023-02-01T04:06:08;4.23;72.61
19536;HTU21D;9913;51.168;4.124;2023-02-01T04:08:38;4.18;72.59
19536;HTU21D;9913;51.168;4.124;2023-02-01T04:11:06;4.14;72.61
19536;HTU21D;9913;51.168;4.124;2023-02-01T04:13:34;4.12;72.68
19536;HTU21D;9913;51.168;4.124;2023-02-01T04:16:03;4.13;72.66
19536;HTU21D;9913;51.168;4.124;2023-02-01T04:18:31;4.12;72.66
19536;HTU21D;9913;51.168;4.124;2023-02-01T04:20:59;4.07;72.69
19536;HTU21D;9913;51.168;4.124;2023-02-01T04:23:29;4.01;72.73
19536;HTU21D;9913;51.168;4.124;2023-02-01T04:26:04;3.95;72.78
19536;HTU21D;9913;51.168;4.124;2023-02-01T04:28:32;3.90;72.80
19536;HTU21D;9913;51.168;4.124;2023-02-01T04:31:01;3.88;72.82
19536;HTU21D;9913;51.168;4.124;2023-02-01T04:33:29;3.89;72.87
19536;HTU21D;9913;51.168;4.124;2023-02-01T04:35:58;3.77;72.87
19536;HTU21D;9913;51.168;4.124;2023-02-01T04:38:27;3.73;72.99
19536;HTU21D;9913;51.168;4.124;2023-02-01T04:40:56;3.71;73.02
19536;HTU21D;9913;51.168;4.124;2023-02-01T04:43:26;3.69;73.03
19536;HTU21D;9913;51.168;4.124;2023-02-01T04:45:54;3.68;73.10
19536;HTU21D;9913;51.168;4.124;2023-02-01T04:48:23;3.62;73.11
19536;HTU21D;9913;51.168;4.124;2023-02-01T04:50:51;3.59;73.17
19536;HTU21D;9913;51.168;4.124;2023-02-01T04:53:19;3.57;73.22
19536;HTU21D;9913;51.168;4.124;2023-02-01T04:55:48;3.50;73.32
19536;HTU21D;9913;51.168;4.124;2023-02-01T04:58:17;3.46;73.39
19536;HTU21D;9913;51.168;4.124;2023-02-01T05:00:46;3.49;73.41
19536;HTU21D;9913;51.168;4.124;2023-02-01T05:03:15;3.50;73.44
19536;HTU21D;9913;51.168;4.124;2023-02-01T05:05:43;3.49;73.42
19536;HTU21D;9913;51.168;4.124;2023-02-01T05:08:12;3.50;73.49
19536;HTU21D;9913;51.168;4.124;2023-02-01T05:10:41;3.59;73.47
19536;HTU21D;9913;51.168;4.124;2023-02-01T05:13:10;3.56;73.38
19536;HTU21D;9913;51.168;4.124;2023-02-01T05:16:03;3.56;73.35
19536;HTU21D;9913;51.168;4.124;2023-02-01T05:18:31;3.52;73.44
19536;HTU21D;9913;51.168;4.124;2023-02-01T05:21:00;3.48;73.54
19536;HTU21D;9913;51.168;4.124;2023-02-01T05:23:29;3.50;73.57
19536;HTU21D;9913;51.168;4.124;2023-02-01T05:26:01;3.54;73.55
19536;HTU21D;9913;51.168;4.124;2023-02-01T05:28:29;3.54;73.45
19536;HTU21D;9913;51.168;4.124;2023-02-01T05:30:57;3.52;73.49
19536;HTU21D;9913;51.168;4.124;2023-02-01T05:33:27;3.56;73.47
19536;HTU21D;9913;51.168;4.124;2023-02-01T05:35:55;3.54;73.41
19536;HTU21D;9913;51.168;4.124;2023-02-01T05:38:26;3.54;73.36
19536;HTU21D;9913;51.168;4.124;2023-02-01T05:40:56;3.62;73.28
19536;HTU21D;9913;51.168;4.124;2023-02-01T05:43:24;3.59;73.22
19536;HTU21D;9913;51.168;4.124;2023-02-01T05:45:53;3.53;73.37
19536;HTU21D;9913;51.168;4.124;2023-02-01T05:48:21;3.50;73.42
19536;HTU21D;9913;51.168;4.124;2023-02-01T05:50:50;3.53;73.38
19536;HTU21D;9913;51.168;4.124;2023-02-01T05:53:19;3.56;73.37
19536;HTU21D;9913;51.168;4.124;2023-02-01T05:55:47;3.57;73.36
19536;HTU21D;9913;51.168;4.124;2023-02-01T05:58:15;3.60;73.31
19536;HTU21D;9913;51.168;4.124;2023-02-01T06:00:43;3.62;73.25
19536;HTU21D;9913;51.168;4.124;2023-02-01T06:03:12;3.63;73.18
19536;HTU21D;9913;51.168;4.124;2023-02-01T06:05:40;3.63;73.19
19536;HTU21D;9913;51.168;4.124;2023-02-01T06:08:13;3.60;73.18
19536;HTU21D;9913;51.168;4.124;2023-02-01T06:10:41;3.62;73.21
19536;HTU21D;9913;51.168;4.124;2023-02-01T06:13:10;3.58;73.19
19536;HTU21D;9913;51.168;4.124;2023-02-01T06:15:38;3.59;73.26
19536;HTU21D;9913;51.168;4.124;2023-02-01T06:18:08;3.59;73.20
19536;HTU21D;9913;51.168;4.124;2023-02-01T06:20:37;3.59;73.24
19536;HTU21D;9913;51.168;4.124;2023-02-01T06:23:05;3.56;73.24
19536;HTU21D;9913;51.168;4.124;2023-02-01T06:25:35;3.61;73.27
19536;HTU21D;9913;51.168;4.124;2023-02-01T06:28:04;3.60;73.24
19536;HTU21D;9913;51.168;4.124;2023-02-01T06:30:33;3.56;73.28
19536;HTU21D;9913;51.168;4.124;2023-02-01T06:33:01;3.53;73.31
19536;HTU21D;9913;51.168;4.124;2023-02-01T06:35:29;3.54;73.39
19536;HTU21D;9913;51.168;4.124;2023-02-01T06:37:58;3.54;73.39
19536;HTU21D;9913;51.168;4.124;2023-02-01T06:40:26;3.55;73.38
19536;HTU21D;9913;51.168;4.124;2023-02-01T06:42:56;3.61;73.28
19536;HTU21D;9913;51.168;4.124;2023-02-01T06:45:25;3.59;73.24
19536;HTU21D;9913;51.168;4.124;2023-02-01T06:47:53;3.61;73.21
19536;HTU21D;9913;51.168;4.124;2023-02-01T06:50:21;3.59;73.16
19536;HTU21D;9913;51.168;4.124;2023-02-01T06:52:50;3.58;73.22
19536;HTU21D;9913;51.168;4.124;2023-02-01T06:55:18;3.61;73.28
19536;HTU21D;9913;51.168;4.124;2023-02-01T06:57:47;3.59;73.25
19536;HTU21D;9913;51.168;4.124;2023-02-01T07:00:17;3.60;73.28
19536;HTU21D;9913;51.168;4.124;2023-02-01T07:02:46;3.67;73.17
19536;HTU21D;9913;51.168;4.124;2023-02-01T07:05:14;3.63;73.12
19536;HTU21D;9913;51.168;4.124;2023-02-01T07:07:42;3.63;73.15
19536;HTU21D;9913;51.168;4.124;2023-02-01T07:10:11;3.63;73.21
19536;HTU21D;9913;51.168;4.124;2023-02-01T07:12:39;3.63;73.21
19536;HTU21D;9913;51.168;4.124;2023-02-01T07:15:08;3.64;73.22
19536;HTU21D;9913;51.168;4.124;2023-02-01T07:17:38;3.69;73.19
19536;HTU21D;9913;51.168;4.124;2023-02-01T07:20:08;3.70;73.24
19536;HTU21D;9913;51.168;4.124;2023-02-01T07:22:36;3.71;73.12
19536;HTU21D;9913;51.168;4.124;2023-02-01T07:25:06;3.75;73.14
19536;HTU21D;9913;51.168;4.124;2023-02-01T07:27:36;3.84;73.09
19536;HTU21D;9913;51.168;4.124;2023-02-01T07:30:05;3.90;73.00
19536;HTU21D;9913;51.168;4.124;2023-02-01T07:32:34;3.94;72.93
19536;HTU21D;9913;51.168;4.124;2023-02-01T07:35:04;3.94;72.80
19536;HTU21D;9913;51.168;4.124;2023-02-01T07:37:33;3.99;72.80
19536;HTU21D;9913;51.168;4.124;2023-02-01T07:40:01;4.02;72.77
19536;HTU21D;9913;51.168;4.124;2023-02-01T07:42:30;4.04;72.77
19536;HTU21D;9913;51.168;4.124;2023-02-01T07:44:58;4.08;72.63
19536;HTU21D;9913;51.168;4.124;2023-02-01T07:47:46;4.14;72.59
19536;HTU21D;9913;51.168;4.124;2023-02-01T07:50:16;4.20;72.51
19536;HTU21D;9913;51.168;4.124;2023-02-01T07:52:44;4.27;72.45
19536;HTU21D;9913;51.168;4.124;2023-02-01T07:55:12;4.35;72.38
19536;HTU21D;9913;51.168;4.124;2023-02-01T07:57:41;4.36;72.36
19536;HTU21D;9913;51.168;4.124;2023-02-01T08:00:10;4.47;72.35
19536;HTU21D;9913;51.168;4.124;2023-02-01T08:03:05;4.59;72.25
19536;HTU21D;9913;51.168;4.124;2023-02-01T08:05:36;4.67;72.16
19536;HTU21D;9913;51.168;4.124;2023-02-01T08:08:06;4.72;72.13
19536;HTU21D;9913;51.168;4.124;2023-02-01T08:10:34;4.73;72.13
19536;HTU21D;9913;51.168;4.124;2023-02-01T08:13:02;4.75;72.06
19536;HTU21D;9913;51.168;4.124;2023-02-01T08:15:31;4.76;72.07
19536;HTU21D;9913;51.168;4.124;2023-02-01T08:17:59;4.76;72.14
19536;HTU21D;9913;51.168;4.124;2023-02-01T08:20:29;4.79;72.20
19536;HTU21D;9913;51.168;4.124;2023-02-01T08:22:58;4.82;72.14
19536;HTU21D;9913;51.168;4.124;2023-02-01T08:25:27;4.84;72.09
19536;HTU21D;9913;51.168;4.124;2023-02-01T08:27:55;4.91;72.06
19536;HTU21D;9913;51.168;4.124;2023-02-01T08:30:23;4.95;72.19
19536;HTU21D;9913;51.168;4.124;2023-02-01T08:32:54;5.00;71.99
19536;HTU21D;9913;51.168;4.124;2023-02-01T08:35:22;5.02;72.13
19536;HTU21D;9913;51.168;4.124;2023-02-01T08:38:09;5.09;72.00
19536;HTU21D;9913;51.168;4.124;2023-02-01T08:40:38;5.17;72.05
19536;HTU21D;9913;51.168;4.124;2023-02-01T08:43:08;5.23;72.13
19536;HTU21D;9913;51.168;4.124;2023-02-01T08:45:37;5.30;72.17
19536;HTU21D;9913;51.168;4.124;2023-02-01T08:48:05;5.39;71.92
19536;HTU21D;9913;51.168;4.124;2023-02-01T08:50:34;5.39;71.96
19536;HTU21D;9913;51.168;4.124;2023-02-01T08:53:02;5.52;72.06
19536;HTU21D;9913;51.168;4.124;2023-02-01T08:55:32;5.57;72.06
19536;HTU21D;9913;51.168;4.124;2023-02-01T08:58:00;5.61;71.90
19536;HTU21D;9913;51.168;4.124;2023-02-01T09:00:28;5.67;72.03
19536;HTU21D;9913;51.168;4.124;2023-02-01T09:02:56;5.71;72.09
19536;HTU21D;9913;51.168;4.124;2023-02-01T09:05:25;5.80;71.98
19536;HTU21D;9913;51.168;4.124;2023-02-01T09:08:13;5.85;71.96
19536;HTU21D;9913;51.168;4.124;2023-02-01T09:10:43;5.86;72.25
19536;HTU21D;9913;51.168;4.124;2023-02-01T09:13:11;5.90;72.04
19536;HTU21D;9913;51.168;4.124;2023-02-01T09:15:40;5.92;72.09
19536;HTU21D;9913;51.168;4.124;2023-02-01T09:18:08;5.95;72.06
19536;HTU21D;9913;51.168;4.124;2023-02-01T09:20:37;6.10;72.15
19536;HTU21D;9913;51.168;4.124;2023-02-01T09:23:05;6.25;72.22
19536;HTU21D;9913;51.168;4.124;2023-02-01T09:25:36;6.40;72.24
19536;HTU21D;9913;51.168;4.124;2023-02-01T09:28:06;6.43;72.30
19536;HTU21D;9913;51.168;4.124;2023-02-01T09:30:37;6.54;72.41
19536;HTU21D;9913;51.168;4.124;2023-02-01T09:33:05;6.58;72.52
19536;HTU21D;9913;51.168;4.124;2023-02-01T09:35:33;6.66;72.45
19536;HTU21D;9913;51.168;4.124;2023-02-01T09:38:02;6.81;72.54
19536;HTU21D;9913;51.168;4.124;2023-02-01T09:40:36;6.78;72.47
19536;HTU21D;9913;51.168;4.124;2023-02-01T09:43:20;6.70;72.39
19536;HTU21D;9913;51.168;4.124;2023-02-01T09:46:02;6.75;72.68
19536;HTU21D;9913;51.168;4.124;2023-02-01T09:48:38;6.85;72.67
19536;HTU21D;9913;51.168;4.124;2023-02-01T09:51:15;6.88;72.55
19536;HTU21D;9913;51.168;4.124;2023-02-01T09:53:55;6.95;72.90
19536;HTU21D;9913;51.168;4.124;2023-02-01T09:56:32;7.12;72.75
19536;HTU21D;9913;51.168;4.124;2023-02-01T09:59:09;7.26;72.87
19536;HTU21D;9913;51.168;4.124;2023-02-01T10:01:41;7.35;73.21
19536;HTU21D;9913;51.168;4.124;2023-02-01T10:04:13;7.44;73.26
19536;HTU21D;9913;51.168;4.124;2023-02-01T10:06:51;7.59;73.93
19536;HTU21D;9913;51.168;4.124;2023-02-01T10:09:35;7.64;73.48
19536;HTU21D;9913;51.168;4.124;2023-02-01T10:15:46;8.03;74.45
19536;HTU21D;9913;51.168;4.124;2023-02-01T10:18:43;7.97;73.75
19536;HTU21D;9913;51.168;4.124;2023-02-01T10:21:19;8.09;74.51
19536;HTU21D;9913;51.168;4.124;2023-02-01T10:24:05;8.24;74.41
19536;HTU21D;9913;51.168;4.124;2023-02-01T10:26:45;8.44;75.63
19536;HTU21D;9913;51.168;4.124;2023-02-01T10:29:17;8.60;75.02
19536;HTU21D;9913;51.168;4.124;2023-02-01T10:31:51;8.59;75.36
19536;HTU21D;9913;51.168;4.124;2023-02-01T10:34:26;8.65;74.78
19536;HTU21D;9913;51.168;4.124;2023-02-01T10:36:56;8.76;75.65
19536;HTU21D;9913;51.168;4.124;2023-02-01T10:39:25;9.08;75.40
19536;HTU21D;9913;51.168;4.124;2023-02-01T10:41:54;9.36;75.41
19536;HTU21D;9913;51.168;4.124;2023-02-01T10:44:26;9.49;74.85
19536;HTU21D;9913;51.168;4.124;2023-02-01T10:46:56;9.59;75.22
19536;HTU21D;9913;51.168;4.124;2023-02-01T10:49:32;9.62;75.77
19536;HTU21D;9913;51.168;4.124;2023-02-01T10:52:06;9.57;75.60
19536;HTU21D;9913;51.168;4.124;2023-02-01T10:54:40;9.60;74.73
19536;HTU21D;9913;51.168;4.124;2023-02-01T10:57:11;9.60;75.10
19536;HTU21D;9913;51.168;4.124;2023-02-01T10:59:47;9.37;75.28
19536;HTU21D;9913;51.168;4.124;2023-02-01T11:02:21;9.21;75.60
19536;HTU21D;9913;51.168;4.124;2023-02-01T11:05:00;9.27;75.09
19536;HTU21D;9913;51.168;4.124;2023-02-01T11:07:29;9.26;74.88
19536;HTU21D;9913;51.168;4.124;2023-02-01T11:09:57;9.17;74.80
19536;HTU21D;9913;51.168;4.124;2023-02-01T11:12:29;9.20;75.13
19536;HTU21D;9913;51.168;4.124;2023-02-01T11:15:02;9.15;74.95
19536;HTU21D;9913;51.168;4.124;2023-02-01T11:17:35;9.51;75.83
19536;HTU21D;9913;51.168;4.124;2023-02-01T11:20:08;9.51;75.99
19536;HTU21D;9913;51.168;4.124;2023-02-01T11:22:45;9.59;76.34
19536;HTU21D;9913;51.168;4.124;2023-02-01T11:25:16;9.71;76.24
19536;HTU21D;9913;51.168;4.124;2023-02-01T11:27:45;9.82;75.95
19536;HTU21D;9913;51.168;4.124;2023-02-01T11:30:30;9.71;76.28
19536;HTU21D;9913;51.168;4.124;2023-02-01T11:33:02;9.68;75.77
19536;HTU21D;9913;51.168;4.124;2023-02-01T11:35:35;9.59;75.14
19536;HTU21D;9913;51.168;4.124;2023-02-01T11:38:13;9.64;75.50
19536;HTU21D;9913;51.168;4.124;2023-02-01T11:40:45;9.77;75.43
19536;HTU21D;9913;51.168;4.124;2023-02-01T11:43:16;9.65;75.48
19536;HTU21D;9913;51.168;4.124;2023-02-01T11:45:55;9.63;75.86
19536;HTU21D;9913;51.168;4.124;2023-02-01T11:48:28;9.61;76.09
19536;HTU21D;9913;51.168;4.124;2023-02-01T11:51:15;9.60;75.98
19536;HTU21D;9913;51.168;4.124;2023-02-01T11:54:08;9.74;74.45
19536;HTU21D;9913;51.168;4.124;2023-02-01T11:56:48;9.81;76.04
19536;HTU21D;9913;51.168;4.124;2023-02-01T11:59:45;9.79;75.90
19536;HTU21D;9913;51.168;4.124;2023-02-01T12:02:51;9.88;74.51
19536;HTU21D;9913;51.168;4.124;2023-02-01T12:05:32;10.15;75.17
19536;HTU21D;9913;51.168;4.124;2023-02-01T12:08:16;10.01;74.86
19536;HTU21D;9913;51.168;4.124;2023-02-01T12:11:14;10.03;75.33
19536;HTU21D;9913;51.168;4.124;2023-02-01T12:13:53;10.20;75.09
19536;HTU21D;9913;51.168;4.124;2023-02-01T12:16:35;10.15;74.98
19536;HTU21D;9913;51.168;4.124;2023-02-01T12:19:16;10.13;74.76
19536;HTU21D;9913;51.168;4.124;2023-02-01T12:21:56;10.10;76.21
19536;HTU21D;9913;51.168;4.124;2023-02-01T12:24:43;10.11;74.73
19536;HTU21D;9913;51.168;4.124;2023-02-01T12:27:29;9.99;76.88
19536;HTU21D;9913;51.168;4.124;2023-02-01T12:30:23;9.91;75.79
19536;HTU21D;9913;51.168;4.124;2023-02-01T12:32:59;9.82;75.88
19536;HTU21D;9913;51.168;4.124;2023-02-01T12:35:44;9.91;75.67
19536;HTU21D;9913;51.168;4.124;2023-02-01T12:38:32;9.90;75.38
19536;HTU21D;9913;51.168;4.124;2023-02-01T12:41:14;9.94;75.79
19536;HTU21D;9913;51.168;4.124;2023-02-01T12:43:49;9.95;75.43
19536;HTU21D;9913;51.168;4.124;2023-02-01T12:46:25;10.04;75.51
19536;HTU21D;9913;51.168;4.124;2023-02-01T12:48:59;9.99;74.97
19536;HTU21D;9913;51.168;4.124;2023-02-01T12:51:33;10.18;75.72
19536;HTU21D;9913;51.168;4.124;2023-02-01T12:54:06;10.14;74.92
19536;HTU21D;9913;51.168;4.124;2023-02-01T12:56:48;10.12;75.76
19536;HTU21D;9913;51.168;4.124;2023-02-01T12:59:21;10.10;74.80
19536;HTU21D;9913;51.168;4.124;2023-02-01T13:01:55;10.12;75.35
19536;HTU21D;9913;51.168;4.124;2023-02-01T13:04:30;10.05;75.08
19536;HTU21D;9913;51.168;4.124;2023-02-01T13:07:05;10.08;75.31
19536;HTU21D;9913;51.168;4.124;2023-02-01T13:09:41;10.15;75.06
19536;HTU21D;9913;51.168;4.124;2023-02-01T13:12:14;10.16;74.68
19536;HTU21D;9913;51.168;4.124;2023-02-01T13:14:47;10.46;75.15
19536;HTU21D;9913;51.168;4.124;2023-02-01T13:17:20;10.30;74.91
19536;HTU21D;9913;51.168;4.124;2023-02-01T13:19:56;10.28;74.71
19536;HTU21D;9913;51.168;4.124;2023-02-01T13:22:30;10.31;74.88
19536;HTU21D;9913;51.168;4.124;2023-02-01T13:25:03;10.15;75.27
19536;HTU21D;9913;51.168;4.124;2023-02-01T13:27:33;10.21;74.75
19536;HTU21D;9913;51.168;4.124;2023-02-01T13:30:04;10.36;74.87
19536;HTU21D;9913;51.168;4.124;2023-02-01T13:36:02;10.45;75.78
19536;HTU21D;9913;51.168;4.124;2023-02-01T13:38:46;10.45;75.58
19536;HTU21D;9913;51.168;4.124;2023-02-01T13:41:25;10.40;74.67
19536;HTU21D;9913;51.168;4.124;2023-02-01T13:43:58;10.57;74.72
19536;HTU21D;9913;51.168;4.124;2023-02-01T13:46:28;10.30;74.06
19536;HTU21D;9913;51.168;4.124;2023-02-01T13:49:22;10.26;74.89
19536;HTU21D;9913;51.168;4.124;2023-02-01T13:51:53;10.23;74.63
19536;HTU21D;9913;51.168;4.124;2023-02-01T13:54:29;10.18;74.55
19536;HTU21D;9913;51.168;4.124;2023-02-01T13:57:01;9.94;74.82
19536;HTU21D;9913;51.168;4.124;2023-02-01T13:59:48;9.86;74.43
19536;HTU21D;9913;51.168;4.124;2023-02-01T14:02:44;9.65;74.73
19536;HTU21D;9913;51.168;4.124;2023-02-01T14:08:37;9.53;74.97
19536;HTU21D;9913;51.168;4.124;2023-02-01T14:11:06;9.55;74.69
19536;HTU21D;9913;51.168;4.124;2023-02-01T14:13:37;9.61;75.18
19536;HTU21D;9913;51.168;4.124;2023-02-01T14:16:14;9.63;74.26
19536;HTU21D;9913;51.168;4.124;2023-02-01T14:18:59;9.57;74.82
19536;HTU21D;9913;51.168;4.124;2023-02-01T14:21:30;9.44;75.05
19536;HTU21D;9913;51.168;4.124;2023-02-01T14:24:01;9.34;74.42
19536;HTU21D;9913;51.168;4.124;2023-02-01T14:26:44;9.29;73.83
19536;HTU21D;9913;51.168;4.124;2023-02-01T14:29:27;9.25;74.64
19536;HTU21D;9913;51.168;4.124;2023-02-01T14:32:03;9.21;75.13
19536;HTU21D;9913;51.168;4.124;2023-02-01T14:34:39;9.15;74.80
19536;HTU21D;9913;51.168;4.124;2023-02-01T14:37:24;9.10;73.94
19536;HTU21D;9913;51.168;4.124;2023-02-01T14:39:56;9.01;75.12
19536;HTU21D;9913;51.168;4.124;2023-02-01T14:42:29;8.96;74.52
19536;HTU21D;9913;51.168;4.124;2023-02-01T14:51:07;8.94;74.29
19536;HTU21D;9913;51.168;4.124;2023-02-01T14:53:37;8.93;74.16
19536;HTU21D;9913;51.168;4.124;2023-02-01T14:56:08;8.94;74.20
19536;HTU21D;9913;51.168;4.124;2023-02-01T14:58:42;8.94;74.34
19536;HTU21D;9913;51.168;4.124;2023-02-01T15:01:21;8.95;74.42
19536;HTU21D;9913;51.168;4.124;2023-02-01T15:03:57;8.95;74.20
19536;HTU21D;9913;51.168;4.124;2023-02-01T15:06:32;8.93;74.45
19536;HTU21D;9913;51.168;4.124;2023-02-01T15:09:03;8.93;74.71
19536;HTU21D;9913;51.168;4.124;2023-02-01T15:11:32;8.93;74.03
19536;HTU21D;9913;51.168;4.124;2023-02-01T15:14:00;8.89;72.91
19536;HTU21D;9913;51.168;4.124;2023-02-01T15:16:28;8.83;74.16
19536;HTU21D;9913;51.168;4.124;2023-02-01T15:19:10;8.83;74.44
19536;HTU21D;9913;51.168;4.124;2023-02-01T15:21:45;8.81;74.10
19536;HTU21D;9913;51.168;4.124;2023-02-01T15:24:19;8.79;73.74
19536;HTU21D;9913;51.168;4.124;2023-02-01T15:26:48;8.78;73.87
19536;HTU21D;9913;51.168;4.124;2023-02-01T15:29:17;8.75;73.73
19536;HTU21D;9913;51.168;4.124;2023-02-01T15:31:47;8.72;73.86
19536;HTU21D;9913;51.168;4.124;2023-02-01T15:34:17;8.64;73.90
19536;HTU21D;9913;51.168;4.124;2023-02-01T15:36:47;8.60;73.30
19536;HTU21D;9913;51.168;4.124;2023-02-01T15:39:29;8.55;73.91
19536;HTU21D;9913;51.168;4.124;2023-02-01T15:42:01;8.51;73.96
19536;HTU21D;9913;51.168;4.124;2023-02-01T15:44:39;8.53;73.83
19536;HTU21D;9913;51.168;4.124;2023-02-01T15:47:14;8.51;73.77
19536;HTU21D;9913;51.168;4.124;2023-02-01T15:49:45;8.45;73.61
19536;HTU21D;9913;51.168;4.124;2023-02-01T15:52:22;8.45;73.64
19536;HTU21D;9913;51.168;4.124;2023-02-01T15:54:53;8.45;73.80
19536;HTU21D;9913;51.168;4.124;2023-02-01T15:57:26;8.43;73.70
19536;HTU21D;9913;51.168;4.124;2023-02-01T15:59:58;8.39;74.19
19536;HTU21D;9913;51.168;4.124;2023-02-01T16:02:42;8.44;73.74
19536;HTU21D;9913;51.168;4.124;2023-02-01T16:05:29;8.43;74.15
19536;HTU21D;9913;51.168;4.124;2023-02-01T16:08:02;8.42;73.33
19536;HTU21D;9913;51.168;4.124;2023-02-01T16:10:32;8.37;73.31
19536;HTU21D;9913;51.168;4.124;2023-02-01T16:13:06;8.37;73.69
19536;HTU21D;9913;51.168;4.124;2023-02-01T16:15:34;8.34;73.60
19536;HTU21D;9913;51.168;4.124;2023-02-01T16:18:02;8.34;73.60
19536;HTU21D;9913;51.168;4.124;2023-02-01T16:20:30;8.32;73.28
19536;HTU21D;9913;51.168;4.124;2023-02-01T16:23:01;8.29;73.38
19536;HTU21D;9913;51.168;4.124;2023-02-01T16:25:30;8.28;73.25
19536;HTU21D;9913;51.168;4.124;2023-02-01T16:27:58;8.28;73.64
19536;HTU21D;9913;51.168;4.124;2023-02-01T16:30:26;8.29;73.21
19536;HTU21D;9913;51.168;4.124;2023-02-01T16:32:56;8.29;73.40
19536;HTU21D;9913;51.168;4.124;2023-02-01T16:35:30;8.27;73.70
19536;HTU21D;9913;51.168;4.124;2023-02-01T16:38:04;8.31;73.51
19536;HTU21D;9913;51.168;4.124;2023-02-01T16:40:35;8.28;73.46